sensor_id;sensor_type;location;lat;lon;timestamp;temperature;humidity
65369;HTU21D;51970;53.484;49.488;2023-04-19T00:01:02;6.21;54.71
65369;HTU21D;51970;53.484;49.488;2023-04-19T00:03:29;6.12;55.25
65369;HTU21D;51970;53.484;49.488;2023-04-19T00:05:55;6.07;55.51
65369;HTU21D;51970;53.484;49.488;2023-04-19T00:08:24;5.99;55.62
65369;HTU21D;51970;53.484;49.488;2023-04-19T00:10:51;5.93;56.19
65369;HTU21D;51970;53.484;49.488;2023-04-19T00:13:17;5.83;56.47
65369;HTU21D;51970;53.484;49.488;2023-04-19T00:15:43;5.80;56.65
65369;HTU21D;51970;53.484;49.488;2023-04-19T00:18:09;5.79;56.77
65369;HTU21D;51970;53.484;49.488;2023-04-19T00:20:35;5.76;56.85
65369;HTU21D;51970;53.484;49.488;2023-04-19T00:23:02;5.71;56.84
65369;HTU21D;51970;53.484;49.488;2023-04-19T00:25:28;5.65;56.94
65369;HTU21D;51970;53.484;49.488;2023-04-19T00:27:56;5.55;57.32
65369;HTU21D;51970;53.484;49.488;2023-04-19T00:30:22;5.43;58.22
65369;HTU21D;51970;53.484;49.488;2023-04-19T00:32:48;5.28;59.00
65369;HTU21D;51970;53.484;49.488;2023-04-19T00:35:15;5.13;60.11
65369;HTU21D;51970;53.484;49.488;2023-04-19T00:37:41;5.01;61.40
65369;HTU21D;51970;53.484;49.488;2023-04-19T00:40:07;4.87;62.33
65369;HTU21D;51970;53.484;49.488;2023-04-19T00:42:34;4.75;63.27
65369;HTU21D;51970;53.484;49.488;2023-04-19T00:45:00;4.61;63.83
65369;HTU21D;51970;53.484;49.488;2023-04-19T00:47:27;4.46;63.64
65369;HTU21D;51970;53.484;49.488;2023-04-19T00:49:53;4.39;63.94
65369;HTU21D;51970;53.484;49.488;2023-04-19T00:52:21;4.31;64.25
65369;HTU21D;51970;53.484;49.488;2023-04-19T00:54:47;4.22;65.28
65369;HTU21D;51970;53.484;49.488;2023-04-19T00:57:14;4.19;65.91
65369;HTU21D;51970;53.484;49.488;2023-04-19T00:59:41;4.19;65.58
65369;HTU21D;51970;53.484;49.488;2023-04-19T01:02:08;4.22;65.11
65369;HTU21D;51970;53.484;49.488;2023-04-19T01:04:35;4.13;65.40
65369;HTU21D;51970;53.484;49.488;2023-04-19T01:07:01;4.09;65.54
65369;HTU21D;51970;53.484;49.488;2023-04-19T01:09:28;4.09;65.87
65369;HTU21D;51970;53.484;49.488;2023-04-19T01:11:54;4.14;65.40
65369;HTU21D;51970;53.484;49.488;2023-04-19T01:14:20;4.13;65.50
65369;HTU21D;51970;53.484;49.488;2023-04-19T01:16:46;4.10;65.63
65369;HTU21D;51970;53.484;49.488;2023-04-19T01:19:12;4.12;65.49
65369;HTU21D;51970;53.484;49.488;2023-04-19T01:21:38;4.08;65.58
65369;HTU21D;51970;53.484;49.488;2023-04-19T01:24:05;3.99;65.85
65369;HTU21D;51970;53.484;49.488;2023-04-19T01:26:31;3.99;65.76
65369;HTU21D;51970;53.484;49.488;2023-04-19T01:28:58;3.93;65.99
65369;HTU21D;51970;53.484;49.488;2023-04-19T01:31:24;3.87;66.43
65369;HTU21D;51970;53.484;49.488;2023-04-19T01:33:50;3.84;66.13
65369;HTU21D;51970;53.484;49.488;2023-04-19T01:36:16;3.84;66.99
65369;HTU21D;51970;53.484;49.488;2023-04-19T01:38:42;3.82;67.78
65369;HTU21D;51970;53.484;49.488;2023-04-19T01:41:08;3.82;68.08
65369;HTU21D;51970;53.484;49.488;2023-04-19T01:43:34;3.85;67.52
65369;HTU21D;51970;53.484;49.488;2023-04-19T01:46:00;3.89;67.43
65369;HTU21D;51970;53.484;49.488;2023-04-19T01:48:26;3.95;67.13
65369;HTU21D;51970;53.484;49.488;2023-04-19T01:50:52;4.15;66.69
65369;HTU21D;51970;53.484;49.488;2023-04-19T01:53:19;4.28;66.03
65369;HTU21D;51970;53.484;49.488;2023-04-19T01:55:45;4.29;65.70
65369;HTU21D;51970;53.484;49.488;2023-04-19T01:58:11;4.31;65.63
65369;HTU21D;51970;53.484;49.488;2023-04-19T02:00:37;4.29;65.25
65369;HTU21D;51970;53.484;49.488;2023-04-19T02:03:03;4.32;65.33
65369;HTU21D;51970;53.484;49.488;2023-04-19T02:05:30;4.64;64.47
65369;HTU21D;51970;53.484;49.488;2023-04-19T02:07:56;5.84;61.17
65369;HTU21D;51970;53.484;49.488;2023-04-19T02:10:22;7.07;56.87
65369;HTU21D;51970;53.484;49.488;2023-04-19T02:12:49;8.23;53.17
65369;HTU21D;51970;53.484;49.488;2023-04-19T02:15:15;9.45;49.72
65369;HTU21D;51970;53.484;49.488;2023-04-19T02:17:41;10.22;47.50
65369;HTU21D;51970;53.484;49.488;2023-04-19T02:20:08;10.67;46.19
65369;HTU21D;51970;53.484;49.488;2023-04-19T02:22:34;11.57;44.03
65369;HTU21D;51970;53.484;49.488;2023-04-19T02:25:00;12.30;41.99
65369;HTU21D;51970;53.484;49.488;2023-04-19T02:27:27;12.50;41.64
65369;HTU21D;51970;53.484;49.488;2023-04-19T02:29:54;13.05;40.43
65369;HTU21D;51970;53.484;49.488;2023-04-19T02:32:21;13.69;38.67
65369;HTU21D;51970;53.484;49.488;2023-04-19T02:34:47;14.48;37.08
65369;HTU21D;51970;53.484;49.488;2023-04-19T02:37:13;15.06;35.77
65369;HTU21D;51970;53.484;49.488;2023-04-19T02:39:39;15.43;34.84
65369;HTU21D;51970;53.484;49.488;2023-04-19T02:42:07;15.73;33.69
65369;HTU21D;51970;53.484;49.488;2023-04-19T02:44:33;15.85;32.58
65369;HTU21D;51970;53.484;49.488;2023-04-19T02:46:59;15.86;32.38
65369;HTU21D;51970;53.484;49.488;2023-04-19T02:49:25;16.24;31.81
65369;HTU21D;51970;53.484;49.488;2023-04-19T02:51:52;16.20;31.51
65369;HTU21D;51970;53.484;49.488;2023-04-19T02:54:18;15.97;31.96
65369;HTU21D;51970;53.484;49.488;2023-04-19T02:56:44;15.83;32.25
65369;HTU21D;51970;53.484;49.488;2023-04-19T02:59:10;16.10;31.85
65369;HTU21D;51970;53.484;49.488;2023-04-19T03:01:36;16.15;31.49
65369;HTU21D;51970;53.484;49.488;2023-04-19T03:04:02;15.87;31.91
65369;HTU21D;51970;53.484;49.488;2023-04-19T03:06:29;14.47;34.57
65369;HTU21D;51970;53.484;49.488;2023-04-19T03:08:55;12.66;38.65
65369;HTU21D;51970;53.484;49.488;2023-04-19T03:11:21;11.10;42.52
65369;HTU21D;51970;53.484;49.488;2023-04-19T03:13:47;10.25;44.57
65369;HTU21D;51970;53.484;49.488;2023-04-19T03:16:13;9.63;46.48
65369;HTU21D;51970;53.484;49.488;2023-04-19T03:18:40;9.21;47.45
65369;HTU21D;51970;53.484;49.488;2023-04-19T03:21:06;9.04;47.56
65369;HTU21D;51970;53.484;49.488;2023-04-19T03:23:34;8.93;48.57
65369;HTU21D;51970;53.484;49.488;2023-04-19T03:26:00;8.97;47.87
65369;HTU21D;51970;53.484;49.488;2023-04-19T03:28:27;9.12;47.40
65369;HTU21D;51970;53.484;49.488;2023-04-19T03:30:54;9.27;46.64
65369;HTU21D;51970;53.484;49.488;2023-04-19T03:33:20;9.40;45.99
65369;HTU21D;51970;53.484;49.488;2023-04-19T03:35:46;9.52;45.67
65369;HTU21D;51970;53.484;49.488;2023-04-19T03:38:12;9.64;45.40
65369;HTU21D;51970;53.484;49.488;2023-04-19T03:40:38;9.76;45.11
65369;HTU21D;51970;53.484;49.488;2023-04-19T03:43:05;9.72;45.33
65369;HTU21D;51970;53.484;49.488;2023-04-19T03:45:32;9.70;45.37
65369;HTU21D;51970;53.484;49.488;2023-04-19T03:47:58;9.75;45.51
65369;HTU21D;51970;53.484;49.488;2023-04-19T03:50:24;9.84;45.12
65369;HTU21D;51970;53.484;49.488;2023-04-19T03:52:50;9.89;45.22
65369;HTU21D;51970;53.484;49.488;2023-04-19T03:55:16;10.07;45.12
65369;HTU21D;51970;53.484;49.488;2023-04-19T03:57:42;10.23;44.62
65369;HTU21D;51970;53.484;49.488;2023-04-19T04:00:10;10.30;44.14
65369;HTU21D;51970;53.484;49.488;2023-04-19T04:02:37;10.22;44.41
65369;HTU21D;51970;53.484;49.488;2023-04-19T04:05:06;10.28;44.54
65369;HTU21D;51970;53.484;49.488;2023-04-19T04:07:32;10.46;44.44
65369;HTU21D;51970;53.484;49.488;2023-04-19T04:09:58;10.56;44.15
65369;HTU21D;51970;53.484;49.488;2023-04-19T04:12:24;10.69;43.81
65369;HTU21D;51970;53.484;49.488;2023-04-19T04:14:52;10.86;43.27
65369;HTU21D;51970;53.484;49.488;2023-04-19T04:17:19;10.93;42.80
65369;HTU21D;51970;53.484;49.488;2023-04-19T04:19:53;11.03;42.39
65369;HTU21D;51970;53.484;49.488;2023-04-19T04:22:20;11.24;42.23
65369;HTU21D;51970;53.484;49.488;2023-04-19T04:24:58;11.40;42.17
65369;HTU21D;51970;53.484;49.488;2023-04-19T04:27:37;11.17;42.18
65369;HTU21D;51970;53.484;49.488;2023-04-19T04:30:05;11.19;42.30
65369;HTU21D;51970;53.484;49.488;2023-04-19T04:32:31;11.27;42.10
65369;HTU21D;51970;53.484;49.488;2023-04-19T04:35:03;11.45;42.00
65369;HTU21D;51970;53.484;49.488;2023-04-19T04:37:34;11.69;40.99
65369;HTU21D;51970;53.484;49.488;2023-04-19T04:40:01;11.90;40.21
65369;HTU21D;51970;53.484;49.488;2023-04-19T04:42:31;11.97;39.81
65369;HTU21D;51970;53.484;49.488;2023-04-19T04:45:06;12.22;41.52
65369;HTU21D;51970;53.484;49.488;2023-04-19T04:47:46;12.52;39.81
65369;HTU21D;51970;53.484;49.488;2023-04-19T04:50:15;12.65;38.47
65369;HTU21D;51970;53.484;49.488;2023-04-19T04:52:43;12.69;38.40
65369;HTU21D;51970;53.484;49.488;2023-04-19T04:55:09;12.78;38.17
65369;HTU21D;51970;53.484;49.488;2023-04-19T04:57:57;12.86;38.17
65369;HTU21D;51970;53.484;49.488;2023-04-19T05:00:26;12.89;38.20
65369;HTU21D;51970;53.484;49.488;2023-04-19T05:02:52;12.99;38.18
65369;HTU21D;51970;53.484;49.488;2023-04-19T05:05:23;13.01;38.30
65369;HTU21D;51970;53.484;49.488;2023-04-19T05:07:49;13.11;38.22
65369;HTU21D;51970;53.484;49.488;2023-04-19T05:10:16;13.12;38.19
65369;HTU21D;51970;53.484;49.488;2023-04-19T05:12:45;13.29;37.67
65369;HTU21D;51970;53.484;49.488;2023-04-19T05:15:24;13.43;37.40
65369;HTU21D;51970;53.484;49.488;2023-04-19T05:17:52;13.46;37.23
65369;HTU21D;51970;53.484;49.488;2023-04-19T05:23:19;13.75;36.42
65369;HTU21D;51970;53.484;49.488;2023-04-19T05:25:51;13.78;36.43
65369;HTU21D;51970;53.484;49.488;2023-04-19T05:28:22;14.01;36.27
65369;HTU21D;51970;53.484;49.488;2023-04-19T05:30:52;14.04;35.34
65369;HTU21D;51970;53.484;49.488;2023-04-19T05:33:25;14.12;35.18
65369;HTU21D;51970;53.484;49.488;2023-04-19T05:36:00;14.29;35.09
65369;HTU21D;51970;53.484;49.488;2023-04-19T05:38:35;14.42;34.86
65369;HTU21D;51970;53.484;49.488;2023-04-19T05:41:25;14.41;34.86
65369;HTU21D;51970;53.484;49.488;2023-04-19T05:43:53;14.48;35.31
65369;HTU21D;51970;53.484;49.488;2023-04-19T05:46:19;14.62;35.13
65369;HTU21D;51970;53.484;49.488;2023-04-19T05:48:55;14.72;35.48
65369;HTU21D;51970;53.484;49.488;2023-04-19T05:51:30;14.91;35.36
65369;HTU21D;51970;53.484;49.488;2023-04-19T05:54:01;14.88;35.53
65369;HTU21D;51970;53.484;49.488;2023-04-19T05:56:28;15.04;35.06
65369;HTU21D;51970;53.484;49.488;2023-04-19T05:58:54;15.09;35.00
65369;HTU21D;51970;53.484;49.488;2023-04-19T06:01:29;14.95;34.70
65369;HTU21D;51970;53.484;49.488;2023-04-19T06:04:24;14.86;34.34
65369;HTU21D;51970;53.484;49.488;2023-04-19T06:06:57;14.91;34.05
65369;HTU21D;51970;53.484;49.488;2023-04-19T06:09:24;14.95;33.83
65369;HTU21D;51970;53.484;49.488;2023-04-19T06:11:55;15.06;34.85
65369;HTU21D;51970;53.484;49.488;2023-04-19T06:14:37;15.27;34.07
65369;HTU21D;51970;53.484;49.488;2023-04-19T06:17:19;15.43;33.04
65369;HTU21D;51970;53.484;49.488;2023-04-19T06:20:04;15.46;32.21
65369;HTU21D;51970;53.484;49.488;2023-04-19T06:22:49;15.60;32.30
65369;HTU21D;51970;53.484;49.488;2023-04-19T06:25:19;0.00;32.36
65369;HTU21D;51970;53.484;49.488;2023-04-19T06:27:46;15.72;32.37
65369;HTU21D;51970;53.484;49.488;2023-04-19T06:30:16;15.85;31.64
65369;HTU21D;51970;53.484;49.488;2023-04-19T06:32:54;16.00;31.46
65369;HTU21D;51970;53.484;49.488;2023-04-19T06:35:25;16.17;31.24
65369;HTU21D;51970;53.484;49.488;2023-04-19T06:37:53;16.15;31.29
65369;HTU21D;51970;53.484;49.488;2023-04-19T06:40:21;16.15;31.13
65369;HTU21D;51970;53.484;49.488;2023-04-19T06:42:56;16.26;31.00
65369;HTU21D;51970;53.484;49.488;2023-04-19T06:45:27;16.25;30.26
65369;HTU21D;51970;53.484;49.488;2023-04-19T06:47:54;16.20;30.54
65369;HTU21D;51970;53.484;49.488;2023-04-19T06:50:21;16.21;30.48
65369;HTU21D;51970;53.484;49.488;2023-04-19T06:52:47;16.10;29.93
65369;HTU21D;51970;53.484;49.488;2023-04-19T06:55:15;16.04;28.95
65369;HTU21D;51970;53.484;49.488;2023-04-19T06:57:43;16.05;28.96
65369;HTU21D;51970;53.484;49.488;2023-04-19T07:00:12;16.24;29.00
65369;HTU21D;51970;53.484;49.488;2023-04-19T07:02:48;16.32;30.09
65369;HTU21D;51970;53.484;49.488;2023-04-19T07:05:18;16.36;28.28
65369;HTU21D;51970;53.484;49.488;2023-04-19T07:07:49;16.48;27.80
65369;HTU21D;51970;53.484;49.488;2023-04-19T07:10:40;16.66;29.41
65369;HTU21D;51970;53.484;49.488;2023-04-19T07:13:11;16.57;29.90
65369;HTU21D;51970;53.484;49.488;2023-04-19T07:15:43;16.64;28.83
65369;HTU21D;51970;53.484;49.488;2023-04-19T07:18:12;16.42;28.85
65369;HTU21D;51970;53.484;49.488;2023-04-19T07:20:43;16.17;29.35
65369;HTU21D;51970;53.484;49.488;2023-04-19T07:23:14;16.41;28.72
65369;HTU21D;51970;53.484;49.488;2023-04-19T07:25:43;16.66;28.23
65369;HTU21D;51970;53.484;49.488;2023-04-19T07:28:21;16.99;29.13
65369;HTU21D;51970;53.484;49.488;2023-04-19T07:30:55;17.04;27.91
65369;HTU21D;51970;53.484;49.488;2023-04-19T07:33:24;16.98;29.00
65369;HTU21D;51970;53.484;49.488;2023-04-19T07:35:50;16.95;28.12
65369;HTU21D;51970;53.484;49.488;2023-04-19T07:38:18;16.81;27.15
65369;HTU21D;51970;53.484;49.488;2023-04-19T07:40:44;16.89;27.16
65369;HTU21D;51970;53.484;49.488;2023-04-19T07:43:10;16.94;25.88
65369;HTU21D;51970;53.484;49.488;2023-04-19T07:45:37;16.99;25.85
65369;HTU21D;51970;53.484;49.488;2023-04-19T07:48:03;16.84;25.59
65369;HTU21D;51970;53.484;49.488;2023-04-19T07:50:29;16.62;26.06
65369;HTU21D;51970;53.484;49.488;2023-04-19T07:52:58;16.77;26.14
65369;HTU21D;51970;53.484;49.488;2023-04-19T07:55:26;16.82;26.65
65369;HTU21D;51970;53.484;49.488;2023-04-19T07:57:54;16.79;26.14
65369;HTU21D;51970;53.484;49.488;2023-04-19T08:00:21;16.98;26.51
65369;HTU21D;51970;53.484;49.488;2023-04-19T08:02:47;17.08;24.83
65369;HTU21D;51970;53.484;49.488;2023-04-19T08:05:16;17.28;25.59
65369;HTU21D;51970;53.484;49.488;2023-04-19T08:07:46;16.98;25.36
65369;HTU21D;51970;53.484;49.488;2023-04-19T08:10:14;16.98;25.46
65369;HTU21D;51970;53.484;49.488;2023-04-19T08:12:41;17.01;25.40
65369;HTU21D;51970;53.484;49.488;2023-04-19T08:15:08;17.21;25.14
65369;HTU21D;51970;53.484;49.488;2023-04-19T08:17:35;17.43;26.20
65369;HTU21D;51970;53.484;49.488;2023-04-19T08:20:05;17.25;24.73
65369;HTU21D;51970;53.484;49.488;2023-04-19T08:22:35;17.06;24.78
65369;HTU21D;51970;53.484;49.488;2023-04-19T08:25:06;17.08;25.11
65369;HTU21D;51970;53.484;49.488;2023-04-19T08:27:34;17.21;24.88
65369;HTU21D;51970;53.484;49.488;2023-04-19T08:30:00;17.31;23.99
65369;HTU21D;51970;53.484;49.488;2023-04-19T08:32:41;17.31;24.04
65369;HTU21D;51970;53.484;49.488;2023-04-19T08:35:11;17.29;24.11
65369;HTU21D;51970;53.484;49.488;2023-04-19T08:37:39;17.31;24.15
65369;HTU21D;51970;53.484;49.488;2023-04-19T08:40:07;17.32;24.36
65369;HTU21D;51970;53.484;49.488;2023-04-19T08:42:39;17.30;24.01
65369;HTU21D;51970;53.484;49.488;2023-04-19T08:45:06;17.40;24.08
65369;HTU21D;51970;53.484;49.488;2023-04-19T08:47:34;17.63;23.51
65369;HTU21D;51970;53.484;49.488;2023-04-19T08:50:03;17.74;23.11
65369;HTU21D;51970;53.484;49.488;2023-04-19T08:52:36;17.85;23.61
65369;HTU21D;51970;53.484;49.488;2023-04-19T08:55:05;18.03;22.83
65369;HTU21D;51970;53.484;49.488;2023-04-19T08:57:35;17.96;22.96
65369;HTU21D;51970;53.484;49.488;2023-04-19T09:00:05;17.94;22.84
65369;HTU21D;51970;53.484;49.488;2023-04-19T09:02:51;17.96;23.28
65369;HTU21D;51970;53.484;49.488;2023-04-19T09:05:19;17.82;23.72
65369;HTU21D;51970;53.484;49.488;2023-04-19T09:07:53;17.69;23.28
65369;HTU21D;51970;53.484;49.488;2023-04-19T09:10:20;17.75;23.52
65369;HTU21D;51970;53.484;49.488;2023-04-19T09:13:04;17.64;23.49
65369;HTU21D;51970;53.484;49.488;2023-04-19T09:15:39;17.96;22.78
65369;HTU21D;51970;53.484;49.488;2023-04-19T09:18:11;18.07;22.18
65369;HTU21D;51970;53.484;49.488;2023-04-19T09:20:44;18.21;21.91
65369;HTU21D;51970;53.484;49.488;2023-04-19T09:23:19;18.15;21.49
65369;HTU21D;51970;53.484;49.488;2023-04-19T09:28:19;18.04;21.49
65369;HTU21D;51970;53.484;49.488;2023-04-19T09:30:52;18.04;21.73
65369;HTU21D;51970;53.484;49.488;2023-04-19T09:33:34;18.22;22.85
65369;HTU21D;51970;53.484;49.488;2023-04-19T09:36:08;18.37;21.67
65369;HTU21D;51970;53.484;49.488;2023-04-19T09:38:52;18.37;21.50
65369;HTU21D;51970;53.484;49.488;2023-04-19T09:41:24;18.37;21.73
65369;HTU21D;51970;53.484;49.488;2023-04-19T09:44:17;18.08;21.98
65369;HTU21D;51970;53.484;49.488;2023-04-19T09:46:48;17.85;22.49
65369;HTU21D;51970;53.484;49.488;2023-04-19T09:49:22;18.06;22.21
65369;HTU21D;51970;53.484;49.488;2023-04-19T09:51:59;18.04;21.50
65369;HTU21D;51970;53.484;49.488;2023-04-19T09:54:50;18.04;21.82
65369;HTU21D;51970;53.484;49.488;2023-04-19T09:57:23;18.04;21.72
65369;HTU21D;51970;53.484;49.488;2023-04-19T09:59:51;18.02;21.63
65369;HTU21D;51970;53.484;49.488;2023-04-19T10:02:50;17.88;21.78
65369;HTU21D;51970;53.484;49.488;2023-04-19T10:05:26;17.94;22.21
65369;HTU21D;51970;53.484;49.488;2023-04-19T10:07:55;18.17;22.05
65369;HTU21D;51970;53.484;49.488;2023-04-19T10:10:26;18.30;22.16
65369;HTU21D;51970;53.484;49.488;2023-04-19T10:13:16;18.43;21.84
65369;HTU21D;51970;53.484;49.488;2023-04-19T10:15:49;18.57;21.47
65369;HTU21D;51970;53.484;49.488;2023-04-19T10:18:18;18.56;21.37
65369;HTU21D;51970;53.484;49.488;2023-04-19T10:21:02;18.53;21.73
65369;HTU21D;51970;53.484;49.488;2023-04-19T10:23:33;18.38;21.97
65369;HTU21D;51970;53.484;49.488;2023-04-19T10:26:10;18.39;21.43
65369;HTU21D;51970;53.484;49.488;2023-04-19T10:28:36;18.53;21.13
65369;HTU21D;51970;53.484;49.488;2023-04-19T10:31:04;18.52;21.14
65369;HTU21D;51970;53.484;49.488;2023-04-19T10:33:49;18.64;20.63
65369;HTU21D;51970;53.484;49.488;2023-04-19T10:36:21;18.63;20.79
65369;HTU21D;51970;53.484;49.488;2023-04-19T10:39:02;18.53;20.99
65369;HTU21D;51970;53.484;49.488;2023-04-19T10:41:57;18.77;21.71
65369;HTU21D;51970;53.484;49.488;2023-04-19T10:44:29;18.97;20.85
65369;HTU21D;51970;53.484;49.488;2023-04-19T12:30:19;18.79;20.29
65369;HTU21D;51970;53.484;49.488;2023-04-19T12:33:29;18.98;20.02
65369;HTU21D;51970;53.484;49.488;2023-04-19T12:35:55;19.03;20.68
65369;HTU21D;51970;53.484;49.488;2023-04-19T12:38:21;19.02;19.93
65369;HTU21D;51970;53.484;49.488;2023-04-19T12:40:50;19.11;20.02
65369;HTU21D;51970;53.484;49.488;2023-04-19T12:43:17;19.10;19.91
65369;HTU21D;51970;53.484;49.488;2023-04-19T12:46:12;19.14;20.10
65369;HTU21D;51970;53.484;49.488;2023-04-19T12:49:00;19.09;20.59
65369;HTU21D;51970;53.484;49.488;2023-04-19T12:51:37;19.07;20.52
65369;HTU21D;51970;53.484;49.488;2023-04-19T12:54:10;18.85;20.43
65369;HTU21D;51970;53.484;49.488;2023-04-19T12:56:40;18.72;20.41
65369;HTU21D;51970;53.484;49.488;2023-04-19T13:03:00;18.67;20.18
65369;HTU21D;51970;53.484;49.488;2023-04-19T13:06:51;18.69;20.26
65369;HTU21D;51970;53.484;49.488;2023-04-19T13:09:19;18.81;20.34
65369;HTU21D;51970;53.484;49.488;2023-04-19T13:11:50;18.84;19.86
65369;HTU21D;51970;53.484;49.488;2023-04-19T13:14:23;18.83;20.33
65369;HTU21D;51970;53.484;49.488;2023-04-19T13:16:55;18.71;20.05
65369;HTU21D;51970;53.484;49.488;2023-04-19T13:19:25;18.55;20.89
65369;HTU21D;51970;53.484;49.488;2023-04-19T13:21:56;18.48;20.84
65369;HTU21D;51970;53.484;49.488;2023-04-19T13:24:22;18.51;20.85
65369;HTU21D;51970;53.484;49.488;2023-04-19T13:27:00;18.44;20.13
65369;HTU21D;51970;53.484;49.488;2023-04-19T13:29:29;18.29;20.47
65369;HTU21D;51970;53.484;49.488;2023-04-19T13:31:59;18.19;20.79
65369;HTU21D;51970;53.484;49.488;2023-04-19T13:34:29;18.26;21.31
65369;HTU21D;51970;53.484;49.488;2023-04-19T13:36:57;18.25;21.08
65369;HTU21D;51970;53.484;49.488;2023-04-19T13:39:25;18.15;20.81
65369;HTU21D;51970;53.484;49.488;2023-04-19T13:42:37;17.96;20.60
65369;HTU21D;51970;53.484;49.488;2023-04-19T13:46:04;17.91;20.80
65369;HTU21D;51970;53.484;49.488;2023-04-19T13:48:51;17.90;20.96
65369;HTU21D;51970;53.484;49.488;2023-04-19T13:51:42;17.89;20.05
65369;HTU21D;51970;53.484;49.488;2023-04-19T13:54:22;17.78;20.33
65369;HTU21D;51970;53.484;49.488;2023-04-19T13:57:55;17.83;20.92
65369;HTU21D;51970;53.484;49.488;2023-04-19T14:00:54;17.65;21.18
65369;HTU21D;51970;53.484;49.488;2023-04-19T14:04:26;17.50;21.66
65369;HTU21D;51970;53.484;49.488;2023-04-19T14:07:39;17.40;21.37
65369;HTU21D;51970;53.484;49.488;2023-04-19T14:10:11;17.35;21.27
65369;HTU21D;51970;53.484;49.488;2023-04-19T14:12:46;17.36;21.32
65369;HTU21D;51970;53.484;49.488;2023-04-19T14:15:35;17.32;21.42
65369;HTU21D;51970;53.484;49.488;2023-04-19T14:18:04;17.34;21.76
65369;HTU21D;51970;53.484;49.488;2023-04-19T14:20:34;17.28;21.42
65369;HTU21D;51970;53.484;49.488;2023-04-19T14:23:01;17.29;21.60
65369;HTU21D;51970;53.484;49.488;2023-04-19T14:25:38;17.73;21.01
65369;HTU21D;51970;53.484;49.488;2023-04-19T14:28:07;17.96;20.83
65369;HTU21D;51970;53.484;49.488;2023-04-19T14:30:40;18.09;20.37
65369;HTU21D;51970;53.484;49.488;2023-04-19T14:33:10;18.20;20.50
65369;HTU21D;51970;53.484;49.488;2023-04-19T14:35:43;18.52;20.06
65369;HTU21D;51970;53.484;49.488;2023-04-19T14:38:14;18.76;19.79
65369;HTU21D;51970;53.484;49.488;2023-04-19T14:40:48;18.26;20.41
65369;HTU21D;51970;53.484;49.488;2023-04-19T14:43:19;17.69;21.15
65369;HTU21D;51970;53.484;49.488;2023-04-19T14:45:58;17.30;21.83
65369;HTU21D;51970;53.484;49.488;2023-04-19T14:48:29;17.06;22.42
65369;HTU21D;51970;53.484;49.488;2023-04-19T14:51:02;16.85;22.85
65369;HTU21D;51970;53.484;49.488;2023-04-19T14:53:31;16.71;23.00
65369;HTU21D;51970;53.484;49.488;2023-04-19T14:56:10;16.63;22.83
65369;HTU21D;51970;53.484;49.488;2023-04-19T14:58:39;16.59;22.95
65369;HTU21D;51970;53.484;49.488;2023-04-19T15:01:16;16.57;23.01
65369;HTU21D;51970;53.484;49.488;2023-04-19T15:03:50;16.42;23.00
65369;HTU21D;51970;53.484;49.488;2023-04-19T15:06:35;16.39;23.05
65369;HTU21D;51970;53.484;49.488;2023-04-19T15:09:22;16.27;23.65
65369;HTU21D;51970;53.484;49.488;2023-04-19T15:11:48;16.17;23.54
65369;HTU21D;51970;53.484;49.488;2023-04-19T15:14:17;16.12;23.68
65369;HTU21D;51970;53.484;49.488;2023-04-19T15:17:11;16.05;23.92
65369;HTU21D;51970;53.484;49.488;2023-04-19T15:19:46;16.01;23.72
65369;HTU21D;51970;53.484;49.488;2023-04-19T15:22:19;15.93;23.95
65369;HTU21D;51970;53.484;49.488;2023-04-19T15:24:47;15.89;24.08
65369;HTU21D;51970;53.484;49.488;2023-04-19T15:27:16;15.82;24.30
65369;HTU21D;51970;53.484;49.488;2023-04-19T15:29:52;15.68;24.76
65369;HTU21D;51970;53.484;49.488;2023-04-19T15:32:22;15.55;24.93
65369;HTU21D;51970;53.484;49.488;2023-04-19T15:35:04;15.39;25.27
65369;HTU21D;51970;53.484;49.488;2023-04-19T15:37:35;15.23;25.68
65369;HTU21D;51970;53.484;49.488;2023-04-19T15:40:12;15.04;25.92
65369;HTU21D;51970;53.484;49.488;2023-04-19T15:42:48;15.00;25.94
65369;HTU21D;51970;53.484;49.488;2023-04-19T15:45:27;14.95;25.97
65369;HTU21D;51970;53.484;49.488;2023-04-19T15:48:30;14.89;26.13
65369;HTU21D;51970;53.484;49.488;2023-04-19T15:50:59;14.79;26.44
65369;HTU21D;51970;53.484;49.488;2023-04-19T15:53:37;14.65;27.20
65369;HTU21D;51970;53.484;49.488;2023-04-19T15:56:05;14.54;26.93
65369;HTU21D;51970;53.484;49.488;2023-04-19T15:58:36;14.45;27.62
65369;HTU21D;51970;53.484;49.488;2023-04-19T16:01:17;14.26;28.61
65369;HTU21D;51970;53.484;49.488;2023-04-19T16:03:54;14.12;28.65
65369;HTU21D;51970;53.484;49.488;2023-04-19T16:06:31;14.05;28.64
65369;HTU21D;51970;53.484;49.488;2023-04-19T16:09:04;13.97;28.81
65369;HTU21D;51970;53.484;49.488;2023-04-19T16:11:36;13.92;29.07
65369;HTU21D;51970;53.484;49.488;2023-04-19T16:14:06;13.89;29.43
65369;HTU21D;51970;53.484;49.488;2023-04-19T16:16:40;13.71;30.31
65369;HTU21D;51970;53.484;49.488;2023-04-19T16:19:07;13.59;30.88
65369;HTU21D;51970;53.484;49.488;2023-04-19T16:21:57;13.44;31.77
65369;HTU21D;51970;53.484;49.488;2023-04-19T16:24:49;13.29;31.85
65369;HTU21D;51970;53.484;49.488;2023-04-19T16:27:23;13.18;32.19
65369;HTU21D;51970;53.484;49.488;2023-04-19T16:30:02;12.95;32.99
65369;HTU21D;51970;53.484;49.488;2023-04-19T16:32:28;12.75;33.51
65369;HTU21D;51970;53.484;49.488;2023-04-19T16:34:58;12.55;34.25
65369;HTU21D;51970;53.484;49.488;2023-04-19T16:37:25;12.47;35.74
65369;HTU21D;51970;53.484;49.488;2023-04-19T16:40:12;12.33;35.56
65369;HTU21D;51970;53.484;49.488;2023-04-19T16:42:41;12.23;35.60
65369;HTU21D;51970;53.484;49.488;2023-04-19T16:45:08;12.19;36.27
65369;HTU21D;51970;53.484;49.488;2023-04-19T16:47:40;12.10;35.99
65369;HTU21D;51970;53.484;49.488;2023-04-19T16:50:24;12.00;36.40
65369;HTU21D;51970;53.484;49.488;2023-04-19T16:52:54;11.93;36.50
65369;HTU21D;51970;53.484;49.488;2023-04-19T16:55:31;11.85;36.29
65369;HTU21D;51970;53.484;49.488;2023-04-19T16:58:02;11.82;36.47
65369;HTU21D;51970;53.484;49.488;2023-04-19T17:00:36;11.76;36.66
65369;HTU21D;51970;53.484;49.488;2023-04-19T17:03:27;11.77;36.95
65369;HTU21D;51970;53.484;49.488;2023-04-19T17:06:02;11.79;36.77
65369;HTU21D;51970;53.484;49.488;2023-04-19T17:08:41;11.78;36.54
65369;HTU21D;51970;53.484;49.488;2023-04-19T17:11:21;11.77;35.83
65369;HTU21D;51970;53.484;49.488;2023-04-19T17:13:51;11.76;35.66
65369;HTU21D;51970;53.484;49.488;2023-04-19T17:16:26;11.72;36.28
65369;HTU21D;51970;53.484;49.488;2023-04-19T17:18:55;11.67;36.03
65369;HTU21D;51970;53.484;49.488;2023-04-19T17:21:23;11.67;35.79
65369;HTU21D;51970;53.484;49.488;2023-04-19T17:23:52;11.68;36.33
65369;HTU21D;51970;53.484;49.488;2023-04-19T17:26:20;11.53;37.21
65369;HTU21D;51970;53.484;49.488;2023-04-19T17:28:47;11.37;38.07